createdAt,value
2022-08-30T00:01:27.732Z,100414.00
2022-08-30T00:03:58.303Z,100417.91
2022-08-30T00:06:28.347Z,100408.34
2022-08-30T00:08:59.692Z,100409.78
2022-08-30T00:11:29.077Z,100407.28
2022-08-30T00:13:58.213Z,100411.28
2022-08-30T00:16:26.887Z,100406.09
2022-08-30T00:18:55.120Z,100406.81
2022-08-30T00:21:23.822Z,100407.75
2022-08-30T00:23:51.808Z,100410.47
2022-08-30T00:26:22.057Z,100403.97
2022-08-30T00:28:49.671Z,100405.53
2022-08-30T00:31:17.389Z,100401.88
2022-08-30T00:33:45.035Z,100400.69
2022-08-30T00:36:12.667Z,100392.44
2022-08-30T00:38:40.264Z,100407.06
2022-08-30T00:41:08.543Z,100402.09
2022-08-30T00:43:37.951Z,100402.56
2022-08-30T00:46:08.278Z,100393.69
2022-08-30T00:48:40.765Z,100399.94
2022-08-30T00:51:11.561Z,100402.06
2022-08-30T00:53:43.191Z,100400.22
2022-08-30T00:56:12.011Z,100400.59
2022-08-30T00:58:45.443Z,100406.22
2022-08-30T01:01:13.468Z,100408.47
2022-08-30T01:03:43.190Z,100408.81
2022-08-30T01:06:11.265Z,100418.09
2022-08-30T01:08:39.259Z,100417.59
2022-08-30T01:11:07.985Z,100422.06
2022-08-30T01:13:36.713Z,100431.03
2022-08-30T01:16:06.348Z,100434.84
2022-08-30T01:18:36.568Z,100428.44
2022-08-30T01:21:12.533Z,100425.13
2022-08-30T01:23:45.467Z,100426.91
2022-08-30T01:26:14.572Z,100425.72
2022-08-30T01:28:47.423Z,100426.06
2022-08-30T01:31:15.369Z,100429.69
2022-08-30T01:33:43.605Z,100428.78
2022-08-30T01:36:14.024Z,100425.78
2022-08-30T01:38:49.307Z,100427.22
2022-08-30T01:41:20.340Z,100428.09
2022-08-30T01:43:49.597Z,100424.38
2022-08-30T01:46:19.845Z,100416.09
2022-08-30T01:48:53.788Z,100413.38
2022-08-30T01:51:24.479Z,100424.72
2022-08-30T01:53:53.859Z,100416.56
2022-08-30T01:56:21.486Z,100413.09
2022-08-30T01:58:49.144Z,100423.09
2022-08-30T02:01:19.680Z,100417.31
2022-08-30T02:03:48.154Z,100419.03
2022-08-30T02:06:21.006Z,100417.63
2022-08-30T02:08:49.556Z,100415.97
2022-08-30T02:11:19.171Z,100412.22
2022-08-30T02:13:47.546Z,100415.97
2022-08-30T02:16:17.620Z,100412.66
2022-08-30T02:18:46.420Z,100410.59
2022-08-30T02:21:14.439Z,100417.66
2022-08-30T02:23:43.148Z,100423.19
2022-08-30T02:26:11.375Z,100422.13
2022-08-30T02:28:42.895Z,100419.66
2022-08-30T02:31:20.435Z,100419.03
2022-08-30T02:33:50.125Z,100428.06
2022-08-30T02:36:18.566Z,100429.78
2022-08-30T02:38:46.406Z,100422.94
2022-08-30T02:41:14.177Z,100415.03
2022-08-30T02:43:43.286Z,100425.66
2022-08-30T02:46:11.185Z,100429.34
2022-08-30T02:48:38.856Z,100435.34
2022-08-30T02:51:09.319Z,100437.47
2022-08-30T02:53:39.769Z,100433.72
2022-08-30T02:56:07.847Z,100422.94
2022-08-30T02:58:35.812Z,100430.69
2022-08-30T03:01:06.638Z,100427.81
2022-08-30T03:03:34.745Z,100418.22
2022-08-30T03:06:03.485Z,100418.22
2022-08-30T03:08:31.275Z,100421.66
2022-08-30T03:10:59.139Z,100425.16
2022-08-30T03:13:26.830Z,100418.09
2022-08-30T03:15:54.709Z,100414.16
2022-08-30T03:18:24.625Z,100425.13
2022-08-30T03:20:54.588Z,100426.50
2022-08-30T03:23:24.478Z,100423.47
2022-08-30T03:25:53.391Z,100421.81
2022-08-30T03:28:21.231Z,100409.97
2022-08-30T03:30:48.972Z,100419.03
2022-08-30T03:33:18.483Z,100415.75
2022-08-30T03:35:49.613Z,100413.69
2022-08-30T03:38:17.431Z,100407.81
2022-08-30T03:40:45.139Z,100411.50
2022-08-30T03:43:13.182Z,100417.69
2022-08-30T03:45:41.494Z,100416.84
2022-08-30T03:48:09.302Z,100423.44
2022-08-30T03:50:37.210Z,100422.81
2022-08-30T03:53:06.214Z,100416.38
2022-08-30T03:55:34.006Z,100412.91
2022-08-30T03:58:01.606Z,100422.28
2022-08-30T04:00:29.763Z,100419.47
2022-08-30T04:02:57.405Z,100414.06
2022-08-30T04:05:25.036Z,100412.75
2022-08-30T04:07:52.898Z,100414.84
2022-08-30T04:10:22.218Z,100408.06
2022-08-30T04:12:50.778Z,100418.50
2022-08-30T04:15:20.833Z,100422.03
2022-08-30T04:17:48.884Z,100425.56
2022-08-30T04:20:17.467Z,100422.34
2022-08-30T04:22:45.167Z,100428.22
2022-08-30T04:25:15.869Z,100431.44
2022-08-30T04:27:46.269Z,100433.00
2022-08-30T04:30:15.582Z,100434.25
2022-08-30T04:32:43.658Z,100434.13
2022-08-30T04:35:12.188Z,100439.59
2022-08-30T04:37:40.574Z,100428.97
2022-08-30T04:40:10.111Z,100433.31
2022-08-30T04:42:38.322Z,100431.22
2022-08-30T04:45:11.255Z,100444.88
2022-08-30T04:47:39.762Z,100434.41
2022-08-30T04:50:08.615Z,100439.78
2022-08-30T04:52:36.278Z,100434.41
2022-08-30T04:55:05.034Z,100442.16
2022-08-30T04:57:32.596Z,100446.38
2022-08-30T05:00:00.193Z,100451.22
2022-08-30T05:02:29.176Z,100452.56
2022-08-30T05:05:14.793Z,100453.63
2022-08-30T05:07:42.509Z,100456.03
2022-08-30T05:10:11.647Z,100459.34
2022-08-30T05:12:39.677Z,100451.31
2022-08-30T05:15:08.619Z,100463.28
2022-08-30T05:17:38.061Z,100457.56
2022-08-30T05:20:07.076Z,100463.19
2022-08-30T05:22:37.406Z,100455.59
2022-08-30T05:25:06.134Z,100464.59
2022-08-30T05:27:34.171Z,100468.69
2022-08-30T05:30:06.273Z,100470.75
2022-08-30T05:32:33.926Z,100473.09
2022-08-30T05:35:02.922Z,100478.34
2022-08-30T05:37:30.584Z,100476.81
2022-08-30T05:39:58.273Z,100482.34
2022-08-30T05:42:26.841Z,100475.75
2022-08-30T05:44:55.458Z,100473.84
2022-08-30T05:47:23.671Z,100474.56
2022-08-30T05:49:51.821Z,100483.19
2022-08-30T05:52:20.857Z,100475.69
2022-08-30T05:54:53.699Z,100478.31
2022-08-30T05:57:22.123Z,100472.97
2022-08-30T05:59:49.797Z,100475.41
2022-08-30T06:02:18.118Z,100476.03
2022-08-30T06:04:45.914Z,100476.88
2022-08-30T06:07:15.766Z,100476.34
2022-08-30T06:09:46.414Z,100466.63
2022-08-30T06:12:14.106Z,100458.34
2022-08-30T06:14:41.850Z,100458.34
2022-08-30T06:17:09.534Z,100445.50
2022-08-30T06:19:37.808Z,100434.91
2022-08-30T06:22:05.948Z,100435.03
2022-08-30T06:24:56.503Z,100428.75
2022-08-30T06:27:25.359Z,100417.44
2022-08-30T06:29:53.126Z,100405.59
2022-08-30T06:32:20.755Z,100420.78
2022-08-30T06:34:48.627Z,100416.78
2022-08-30T06:37:29.281Z,100420.22
2022-08-30T06:39:58.430Z,100426.25
2022-08-30T06:42:31.881Z,100417.31
2022-08-30T06:44:59.976Z,100411.22
2022-08-30T06:47:28.388Z,100418.66
2022-08-30T06:49:56.734Z,100406.38
2022-08-30T06:52:24.947Z,100405.94
2022-08-30T06:54:54.294Z,100407.50
2022-08-30T06:57:21.983Z,100402.47
2022-08-30T06:59:55.329Z,100404.56
2022-08-30T07:02:25.394Z,100402.63
2022-08-30T07:04:53.112Z,100409.09
2022-08-30T07:07:21.038Z,100408.63
2022-08-30T07:09:49.219Z,100413.91
2022-08-30T07:12:17.080Z,100417.69
2022-08-30T07:14:44.835Z,100408.09
2022-08-30T07:17:34.768Z,100413.84
2022-08-30T07:20:04.762Z,100404.31
2022-08-30T07:22:33.424Z,100405.03
2022-08-30T07:25:01.571Z,100403.97
2022-08-30T07:27:29.528Z,100419.31
2022-08-30T07:29:58.791Z,100424.34
2022-08-30T07:32:27.821Z,100422.09
2022-08-30T07:34:56.543Z,100430.25
2022-08-30T07:37:25.031Z,100430.50
2022-08-30T07:39:53.371Z,100432.59
2022-08-30T07:42:21.042Z,100429.69
2022-08-30T07:44:48.830Z,100423.22
2022-08-30T07:47:16.750Z,100413.97
2022-08-30T07:49:45.751Z,100424.84
2022-08-30T07:52:13.410Z,100430.56
2022-08-30T07:54:41.050Z,100421.06
2022-08-30T07:57:08.729Z,100420.31
2022-08-30T07:59:36.655Z,100405.19
2022-08-30T08:02:04.623Z,100422.00
2022-08-30T08:04:33.213Z,100424.44
2022-08-30T08:07:02.554Z,100423.00
2022-08-30T08:09:30.326Z,100425.38
2022-08-30T08:11:58.000Z,100428.28
2022-08-30T08:14:25.664Z,100434.38
2022-08-30T08:16:53.662Z,100439.28
2022-08-30T08:19:21.655Z,100431.84
2022-08-30T08:21:55.713Z,100439.09
2022-08-30T08:24:38.661Z,100427.75
2022-08-30T08:27:06.568Z,100428.88
2022-08-30T08:29:34.214Z,100423.84
2022-08-30T08:32:01.824Z,100427.16
2022-08-30T08:34:29.443Z,100427.38
2022-08-30T08:36:57.407Z,100422.66
2022-08-30T08:39:25.002Z,100427.44
2022-08-30T08:42:05.583Z,100432.44
2022-08-30T08:44:50.572Z,100422.69
2022-08-30T08:47:27.189Z,100432.31
2022-08-30T08:49:59.416Z,100419.56
2022-08-30T08:52:49.516Z,100418.63
2022-08-30T08:55:21.354Z,100430.47
2022-08-30T08:57:52.343Z,100427.97
2022-08-30T09:00:20.202Z,100432.16
2022-08-30T09:02:55.903Z,100433.41
2022-08-30T09:05:26.485Z,100428.31
2022-08-30T09:08:00.581Z,100428.97
2022-08-30T09:10:49.427Z,100413.75
2022-08-30T09:13:19.723Z,100423.25
2022-08-30T09:15:54.802Z,100412.91
2022-08-30T09:18:42.977Z,100415.28
2022-08-30T09:21:14.723Z,100412.00
2022-08-30T09:23:51.842Z,100407.41
2022-08-30T09:26:30.667Z,100394.53
2022-08-30T09:29:00.967Z,100400.31
2022-08-30T09:31:30.802Z,100403.47
2022-08-30T09:34:03.385Z,100402.84
2022-08-30T09:36:35.073Z,100395.06
2022-08-30T09:39:05.837Z,100395.69
2022-08-30T09:41:40.114Z,100407.81
2022-08-30T09:44:15.189Z,100391.66
2022-08-30T09:46:48.770Z,100393.94
2022-08-30T09:49:34.090Z,100381.88
2022-08-30T09:52:16.857Z,100375.31
2022-08-30T09:54:53.227Z,100378.09
2022-08-30T09:57:34.074Z,100380.22
2022-08-30T10:00:06.611Z,100375.09
2022-08-30T10:03:00.141Z,100379.09
2022-08-30T10:05:33.555Z,100373.25
2022-08-30T10:08:12.894Z,100360.13
2022-08-30T10:10:49.459Z,100361.44
2022-08-30T10:13:35.693Z,100361.38
2022-08-30T10:16:15.790Z,100356.78
2022-08-30T10:18:54.949Z,100353.94
2022-08-30T10:21:29.850Z,100348.47
2022-08-30T10:24:02.028Z,100345.53
2022-08-30T10:26:33.997Z,100350.09
2022-08-30T10:29:07.069Z,100345.84
2022-08-30T10:31:41.591Z,100342.75
2022-08-30T10:34:15.444Z,100328.50
2022-08-30T10:36:47.238Z,100338.16
2022-08-30T10:39:22.172Z,100331.56
2022-08-30T10:41:54.291Z,100336.00
2022-08-30T10:44:26.483Z,100332.19
2022-08-30T10:47:09.464Z,100321.19
2022-08-30T10:49:42.960Z,100317.31
2022-08-30T10:52:25.662Z,100318.72
2022-08-30T10:54:56.327Z,100314.53
2022-08-30T10:57:25.687Z,100316.66
2022-08-30T10:59:59.342Z,100309.34
2022-08-30T11:02:58.114Z,100311.22
2022-08-30T11:05:48.491Z,100308.97
2022-08-30T11:08:30.131Z,100296.91
2022-08-30T11:11:12.957Z,100308.72
2022-08-30T11:13:42.990Z,100307.97
2022-08-30T11:16:15.635Z,100296.91
2022-08-30T11:18:51.169Z,100301.38
2022-08-30T11:21:24.385Z,100302.41
2022-08-30T11:24:11.427Z,100304.16
2022-08-30T11:27:06.750Z,100297.13
2022-08-30T11:29:42.607Z,100300.16
2022-08-30T11:32:58.291Z,100295.50
2022-08-30T11:35:48.669Z,100300.22
2022-08-30T11:38:41.088Z,100289.91
2022-08-30T11:41:14.080Z,100291.59
2022-08-30T11:43:55.598Z,100279.63
2022-08-30T11:46:38.508Z,100282.09
2022-08-30T11:50:00.649Z,100280.81
2022-08-30T11:52:45.333Z,100285.41
2022-08-30T11:55:41.610Z,100277.44
2022-08-30T11:58:26.181Z,100274.88
2022-08-30T12:01:42.230Z,100271.50
2022-08-30T12:04:15.017Z,100271.19
2022-08-30T12:06:49.472Z,100259.81
2022-08-30T12:10:06.111Z,100255.00
2022-08-30T12:12:55.389Z,100257.69
2022-08-30T12:15:45.045Z,100258.81
2022-08-30T12:18:30.447Z,100256.84
2022-08-30T12:21:04.895Z,100249.69
2022-08-30T12:23:44.589Z,100257.09
2022-08-30T12:26:20.107Z,100249.59
2022-08-30T12:28:51.965Z,100250.03
2022-08-30T12:31:23.736Z,100252.88
2022-08-30T12:33:56.594Z,100254.16
2022-08-30T12:36:35.022Z,100241.09
2022-08-30T12:39:07.943Z,100243.59
2022-08-30T12:41:35.995Z,100248.38
2022-08-30T12:44:17.283Z,100239.25
2022-08-30T12:46:49.400Z,100236.81
2022-08-30T12:49:18.772Z,100240.69
2022-08-30T12:51:47.589Z,100237.13
2022-08-30T12:54:19.464Z,100233.22
2022-08-30T12:57:19.030Z,100233.41
2022-08-30T12:59:59.553Z,100229.88
2022-08-30T13:02:44.833Z,100224.63
2022-08-30T13:05:48.329Z,100227.06
2022-08-30T13:08:22.362Z,100226.22
2022-08-30T13:10:52.787Z,100220.34
2022-08-30T13:13:37.394Z,100217.66
2022-08-30T13:16:21.512Z,100207.88
2022-08-30T13:18:52.029Z,100211.22
2022-08-30T13:21:28.646Z,100215.97
2022-08-30T13:23:59.296Z,100209.94
2022-08-30T13:26:31.472Z,100209.41
2022-08-30T13:29:01.409Z,100207.50
2022-08-30T13:31:30.747Z,100198.19
2022-08-30T13:34:02.361Z,100190.88
2022-08-30T13:36:33.507Z,100195.69
2022-08-30T13:39:02.902Z,100194.81
2022-08-30T13:41:33.931Z,100193.03
2022-08-30T13:44:13.065Z,100194.81
2022-08-30T13:46:47.596Z,100185.88
2022-08-30T13:52:21.573Z,100188.00
2022-08-30T13:54:50.968Z,100178.78
2022-08-30T14:00:12.357Z,100178.25
2022-08-30T14:02:45.393Z,100183.88
2022-08-30T14:05:46.957Z,100170.78
2022-08-30T14:08:06.451Z,100172.50
2022-08-30T14:10:46.479Z,100174.59
2022-08-30T14:13:15.012Z,100167.63
2022-08-30T14:15:42.773Z,100175.59
2022-08-30T14:18:13.529Z,100174.44
2022-08-30T14:20:45.924Z,100165.69
2022-08-30T14:23:13.543Z,100166.06
2022-08-30T14:25:41.310Z,100164.13
2022-08-30T14:28:09.898Z,100159.50
2022-08-30T14:30:38.849Z,100161.69
2022-08-30T14:33:07.117Z,100158.84
2022-08-30T14:35:36.800Z,100155.13
2022-08-30T14:38:06.588Z,100151.66
2022-08-30T14:40:38.986Z,100155.91
2022-08-30T14:43:06.770Z,100147.66
2022-08-30T14:45:34.477Z,100147.91
2022-08-30T14:48:06.240Z,100156.00
2022-08-30T14:50:40.026Z,100145.75
2022-08-30T14:53:09.477Z,100133.63
2022-08-30T14:55:37.620Z,100135.63
2022-08-30T14:58:06.833Z,100139.59
2022-08-30T15:00:34.478Z,100132.16
2022-08-30T15:03:03.495Z,100128.34
2022-08-30T15:05:31.842Z,100122.88
2022-08-30T15:08:00.564Z,100115.75
2022-08-30T15:10:29.556Z,100123.81
2022-08-30T15:12:57.173Z,100122.19
2022-08-30T15:15:25.408Z,100116.28
2022-08-30T15:17:53.327Z,100113.63
2022-08-30T15:20:21.188Z,100109.72
2022-08-30T15:22:48.811Z,100113.13
2022-08-30T15:25:16.681Z,100106.22
2022-08-30T15:27:47.270Z,100104.13
2022-08-30T15:30:17.437Z,100109.91
2022-08-30T15:32:48.601Z,100112.59
2022-08-30T15:35:16.434Z,100108.41
2022-08-30T15:37:44.222Z,100099.91
2022-08-30T15:40:12.510Z,100102.38
2022-08-30T15:42:40.904Z,100103.25
2022-08-30T15:45:12.425Z,100106.72
2022-08-30T15:47:40.125Z,100103.19
2022-08-30T15:50:09.014Z,100105.13
2022-08-30T15:52:36.926Z,100101.81
2022-08-30T15:55:05.088Z,100102.25
2022-08-30T15:57:33.477Z,100100.81
2022-08-30T16:00:01.634Z,100098.06
2022-08-30T16:02:32.010Z,100099.88
2022-08-30T16:04:59.795Z,100093.84
2022-08-30T16:07:27.896Z,100094.97
2022-08-30T16:09:55.453Z,100090.06
2022-08-30T16:12:23.995Z,100090.16
2022-08-30T16:14:52.061Z,100089.97
2022-08-30T16:17:19.911Z,100078.84
2022-08-30T16:19:48.970Z,100087.09
2022-08-30T16:22:18.645Z,100088.78
2022-08-30T16:24:50.312Z,100085.66
2022-08-30T16:27:18.140Z,100086.03
2022-08-30T16:29:50.186Z,100083.09
2022-08-30T16:32:18.371Z,100081.88
2022-08-30T16:34:46.169Z,100083.97
2022-08-30T16:37:16.391Z,100077.31
2022-08-30T16:39:46.551Z,100080.41
2022-08-30T16:42:14.974Z,100080.22
2022-08-30T16:44:49.757Z,100080.22
2022-08-30T16:47:17.734Z,100083.34
2022-08-30T16:49:47.464Z,100074.88
2022-08-30T16:52:16.734Z,100080.41
2022-08-30T16:54:46.131Z,100079.91
2022-08-30T16:57:19.738Z,100075.63
2022-08-30T16:59:47.879Z,100075.63
2022-08-30T17:02:20.166Z,100077.63
2022-08-30T17:04:52.349Z,100075.91
2022-08-30T17:07:22.768Z,100084.19
2022-08-30T17:09:50.676Z,100083.75
2022-08-30T17:12:26.801Z,100082.50
2022-08-30T17:14:55.528Z,100091.41
2022-08-30T17:17:23.555Z,100084.06
2022-08-30T17:19:51.215Z,100089.38
2022-08-30T17:22:19.165Z,100085.59
2022-08-30T17:24:52.193Z,100085.78
2022-08-30T17:27:21.055Z,100089.28
2022-08-30T17:29:48.890Z,100092.34
2022-08-30T17:32:16.458Z,100100.09
2022-08-30T17:34:44.954Z,100103.28
2022-08-30T17:37:13.555Z,100112.75
2022-08-30T17:39:41.309Z,100108.69
2022-08-30T17:42:10.330Z,100110.50
2022-08-30T17:44:41.975Z,100111.53
2022-08-30T17:47:10.060Z,100116.63
2022-08-30T17:49:37.962Z,100109.25
2022-08-30T17:52:06.046Z,100124.50
2022-08-30T17:54:37.489Z,100123.47
2022-08-30T17:57:10.737Z,100115.47
2022-08-30T17:59:43.022Z,100118.53
2022-08-30T18:02:11.107Z,100130.81
2022-08-30T18:04:39.223Z,100124.44
2022-08-30T18:07:11.982Z,100124.28
2022-08-30T18:09:40.623Z,100135.63
2022-08-30T18:12:08.981Z,100138.38
2022-08-30T18:14:39.320Z,100137.50
2022-08-30T18:17:09.138Z,100144.47
2022-08-30T18:19:46.162Z,100153.31
2022-08-30T18:22:14.687Z,100152.84
2022-08-30T18:24:42.439Z,100156.69
2022-08-30T18:27:10.318Z,100158.56
2022-08-30T18:29:38.177Z,100165.53
2022-08-30T18:32:06.102Z,100166.72
2022-08-30T18:34:40.272Z,100169.66
2022-08-30T18:37:11.492Z,100182.91
2022-08-30T18:39:41.215Z,100183.41
2022-08-30T18:42:09.739Z,100184.00
2022-08-30T18:44:37.935Z,100192.03
2022-08-30T18:47:06.018Z,100190.84
2022-08-30T18:49:35.514Z,100188.44
2022-08-30T18:52:08.115Z,100187.09
2022-08-30T18:54:40.366Z,100191.16
2022-08-30T18:57:07.954Z,100193.75
2022-08-30T18:59:38.160Z,100192.00
2022-08-30T19:02:06.517Z,100186.53
2022-08-30T19:04:35.776Z,100200.00
2022-08-30T19:07:06.828Z,100194.06
2022-08-30T19:09:34.936Z,100191.03
2022-08-30T19:12:02.879Z,100198.78
2022-08-30T19:14:31.416Z,100192.00
2022-08-30T19:17:02.021Z,100197.19
2022-08-30T19:19:32.409Z,100200.31
2022-08-30T19:22:02.557Z,100197.50
2022-08-30T19:24:31.545Z,100197.84
2022-08-30T19:27:00.236Z,100203.59
2022-08-30T19:29:28.412Z,100204.75
2022-08-30T19:31:56.282Z,100199.34
2022-08-30T19:34:24.057Z,100197.97
2022-08-30T19:36:52.143Z,100205.66
2022-08-30T19:39:20.488Z,100208.97
2022-08-30T19:41:51.132Z,100211.19
2022-08-30T19:44:19.347Z,100211.53
2022-08-30T19:46:47.070Z,100207.75
2022-08-30T19:49:15.376Z,100215.75
2022-08-30T19:51:46.641Z,100213.88
2022-08-30T19:54:14.933Z,100215.22
2022-08-30T19:56:42.759Z,100215.25
2022-08-30T19:59:11.962Z,100221.78
2022-08-30T20:01:39.747Z,100231.41
2022-08-30T20:04:07.449Z,100222.63
2022-08-30T20:06:35.647Z,100218.53
2022-08-30T20:09:03.863Z,100217.47
2022-08-30T20:11:31.730Z,100222.38
2022-08-30T20:13:59.734Z,100222.13
2022-08-30T20:16:35.628Z,100231.16
2022-08-30T20:19:06.440Z,100233.09
2022-08-30T20:21:34.307Z,100233.06
2022-08-30T20:24:04.021Z,100232.78
2022-08-30T20:26:34.385Z,100238.53
2022-08-30T20:29:03.004Z,100242.09
2022-08-30T20:31:34.681Z,100248.94
2022-08-30T20:34:02.689Z,100247.59
2022-08-30T20:36:30.333Z,100255.22
2022-08-30T20:38:58.797Z,100252.22
2022-08-30T20:41:28.957Z,100255.50
2022-08-30T20:43:58.199Z,100261.75
2022-08-30T20:46:27.738Z,100264.50
2022-08-30T20:49:01.430Z,100268.09
2022-08-30T20:51:29.199Z,100268.66
2022-08-30T20:53:58.373Z,100269.72
2022-08-30T20:56:27.662Z,100267.81
2022-08-30T20:58:55.295Z,100265.56
2022-08-30T21:01:24.167Z,100266.66
2022-08-30T21:03:51.965Z,100263.63
2022-08-30T21:06:21.683Z,100264.44
2022-08-30T21:08:49.331Z,100265.25
2022-08-30T21:11:16.947Z,100266.06
2022-08-30T21:13:44.947Z,100275.94
2022-08-30T21:16:12.711Z,100271.81
2022-08-30T21:18:40.506Z,100272.34
2022-08-30T21:21:14.340Z,100270.72
2022-08-30T21:23:43.620Z,100264.41
2022-08-30T21:26:11.713Z,100273.38
2022-08-30T21:28:40.089Z,100279.13
2022-08-30T21:31:10.296Z,100288.13
2022-08-30T21:33:38.179Z,100275.00
2022-08-30T21:36:24.882Z,100279.69
2022-08-30T21:38:54.593Z,100282.38
2022-08-30T21:41:28.676Z,100283.72
2022-08-30T21:43:57.722Z,100281.56
2022-08-30T21:46:26.072Z,100282.63
2022-08-30T21:48:54.220Z,100285.09
2022-08-30T21:51:22.452Z,100286.41
2022-08-30T21:53:50.031Z,100283.94
2022-08-30T21:56:22.097Z,100276.28
2022-08-30T21:58:50.283Z,100285.53
2022-08-30T22:01:22.646Z,100291.22
2022-08-30T22:03:51.706Z,100280.59
2022-08-30T22:06:19.824Z,100284.13
2022-08-30T22:08:50.153Z,100293.41
2022-08-30T22:11:24.815Z,100288.72
2022-08-30T22:13:54.589Z,100292.47
2022-08-30T22:16:23.180Z,100297.13
2022-08-30T22:18:52.058Z,100292.19
2022-08-30T22:21:22.726Z,100303.44
2022-08-30T22:23:50.768Z,100305.56
2022-08-30T22:26:21.806Z,100297.13
2022-08-30T22:28:49.578Z,100304.47
2022-08-30T22:31:18.772Z,100304.97
2022-08-30T22:33:47.819Z,100304.97
2022-08-30T22:36:17.761Z,100317.81
2022-08-30T22:38:45.559Z,100314.78
2022-08-30T22:41:17.498Z,100309.31
2022-08-30T22:43:47.341Z,100307.69
2022-08-30T22:46:16.024Z,100320.69
2022-08-30T22:48:46.830Z,100314.16
2022-08-30T22:51:16.050Z,100314.97
2022-08-30T22:53:45.057Z,100316.81
2022-08-30T22:56:14.636Z,100322.25
2022-08-30T22:58:42.749Z,100316.72
2022-08-30T23:01:19.690Z,100320.78
2022-08-30T23:03:47.521Z,100320.53
2022-08-30T23:06:15.192Z,100318.25
2022-08-30T23:08:42.892Z,100320.53
2022-08-30T23:11:11.522Z,100324.91
2022-08-30T23:13:39.456Z,100327.97
2022-08-30T23:16:09.059Z,100327.41
2022-08-30T23:18:39.752Z,100330.75
2022-08-30T23:21:10.860Z,100326.84
2022-08-30T23:23:57.269Z,100330.59
2022-08-30T23:26:42.902Z,100330.50
2022-08-30T23:29:28.347Z,100348.50
2022-08-30T23:32:13.804Z,100338.69
2022-08-30T23:35:00.665Z,100340.09
2022-08-30T23:37:46.124Z,100337.09
2022-08-30T23:40:34.680Z,100336.28
2022-08-30T23:43:19.934Z,100347.28
2022-08-30T23:46:05.569Z,100337.97
2022-08-30T23:48:52.369Z,100340.28
2022-08-30T23:51:39.056Z,100341.56
2022-08-30T23:54:24.890Z,100344.94
2022-08-30T23:57:10.793Z,100341.47
2022-08-30T23:59:56.275Z,100341.66
